sensor_id;sensor_type;location;lat;lon;timestamp;P1;durP1;ratioP1;P2;durP2;ratioP2
32788;SDS011;19141;48.980;8.410;2023-02-28T05:22:32;2.38;;;1.90;;
32788;SDS011;19141;48.980;8.410;2023-02-28T05:24:58;3.65;;;2.28;;
32788;SDS011;19141;48.980;8.410;2023-02-28T05:27:23;3.03;;;2.33;;
32788;SDS011;19141;48.980;8.410;2023-02-28T05:29:50;1.67;;;1.42;;
32788;SDS011;19141;48.980;8.410;2023-02-28T05:32:15;2.95;;;1.92;;
32788;SDS011;19141;48.980;8.410;2023-02-28T05:34:40;2.42;;;1.77;;
32788;SDS011;19141;48.980;8.410;2023-02-28T05:37:11;1.95;;;1.52;;
32788;SDS011;19141;48.980;8.410;2023-02-28T05:39:38;1.75;;;1.65;;
32788;SDS011;19141;48.980;8.410;2023-02-28T05:42:03;2.58;;;1.75;;
32788;SDS011;19141;48.980;8.410;2023-02-28T05:44:29;2.25;;;1.75;;
32788;SDS011;19141;48.980;8.410;2023-02-28T05:46:55;2.25;;;1.75;;
32788;SDS011;19141;48.980;8.410;2023-02-28T05:49:20;2.35;;;2.10;;
32788;SDS011;19141;48.980;8.410;2023-02-28T05:51:46;1.80;;;1.50;;
32788;SDS011;19141;48.980;8.410;2023-02-28T05:54:11;1.52;;;1.38;;
32788;SDS011;19141;48.980;8.410;2023-02-28T05:56:37;2.58;;;1.90;;
32788;SDS011;19141;48.980;8.410;2023-02-28T06:01:32;2.92;;;2.15;;
32788;SDS011;19141;48.980;8.410;2023-02-28T06:04:00;2.28;;;1.67;;
32788;SDS011;19141;48.980;8.410;2023-02-28T06:06:27;2.40;;;1.60;;
32788;SDS011;19141;48.980;8.410;2023-02-28T06:08:52;3.80;;;2.03;;
32788;SDS011;19141;48.980;8.410;2023-02-28T06:11:18;1.98;;;1.83;;
32788;SDS011;19141;48.980;8.410;2023-02-28T06:13:45;3.47;;;1.67;;
32788;SDS011;19141;48.980;8.410;2023-02-28T06:16:11;2.85;;;1.60;;
32788;SDS011;19141;48.980;8.410;2023-02-28T06:18:37;3.88;;;2.58;;
32788;SDS011;19141;48.980;8.410;2023-02-28T06:21:02;2.80;;;2.33;;
32788;SDS011;19141;48.980;8.410;2023-02-28T06:23:28;3.15;;;1.85;;
32788;SDS011;19141;48.980;8.410;2023-02-28T06:25:54;1.70;;;1.40;;
32788;SDS011;19141;48.980;8.410;2023-02-28T06:28:23;1.90;;;1.65;;
32788;SDS011;19141;48.980;8.410;2023-02-28T06:30:49;2.83;;;2.03;;
32788;SDS011;19141;48.980;8.410;2023-02-28T06:33:14;1.98;;;1.88;;
32788;SDS011;19141;48.980;8.410;2023-02-28T06:35:42;1.77;;;1.67;;
32788;SDS011;19141;48.980;8.410;2023-02-28T06:38:09;2.13;;;1.65;;
32788;SDS011;19141;48.980;8.410;2023-02-28T06:40:35;2.22;;;1.88;;
32788;SDS011;19141;48.980;8.410;2023-02-28T06:43:02;3.22;;;2.10;;
32788;SDS011;19141;48.980;8.410;2023-02-28T06:45:27;3.10;;;2.00;;
32788;SDS011;19141;48.980;8.410;2023-02-28T06:47:53;3.97;;;2.58;;
32788;SDS011;19141;48.980;8.410;2023-02-28T06:50:18;2.97;;;1.63;;
32788;SDS011;19141;48.980;8.410;2023-02-28T06:52:45;1.70;;;1.60;;
32788;SDS011;19141;48.980;8.410;2023-02-28T06:55:11;2.13;;;1.73;;
32788;SDS011;19141;48.980;8.410;2023-02-28T06:57:36;2.08;;;1.60;;
32788;SDS011;19141;48.980;8.410;2023-02-28T07:00:04;2.28;;;2.08;;
32788;SDS011;19141;48.980;8.410;2023-02-28T07:02:32;1.67;;;1.52;;
32788;SDS011;19141;48.980;8.410;2023-02-28T07:04:58;2.63;;;1.98;;
32788;SDS011;19141;48.980;8.410;2023-02-28T07:07:24;2.60;;;2.05;;
32788;SDS011;19141;48.980;8.410;2023-02-28T07:09:49;4.70;;;2.38;;
32788;SDS011;19141;48.980;8.410;2023-02-28T07:12:14;1.98;;;1.77;;
32788;SDS011;19141;48.980;8.410;2023-02-28T07:14:40;2.30;;;1.48;;
32788;SDS011;19141;48.980;8.410;2023-02-28T07:17:09;1.55;;;1.45;;
32788;SDS011;19141;48.980;8.410;2023-02-28T07:19:37;2.22;;;1.40;;
32788;SDS011;19141;48.980;8.410;2023-02-28T07:22:03;6.15;;;2.00;;
32788;SDS011;19141;48.980;8.410;2023-02-28T07:24:28;2.30;;;1.77;;
32788;SDS011;19141;48.980;8.410;2023-02-28T07:26:54;1.98;;;1.77;;
32788;SDS011;19141;48.980;8.410;2023-02-28T07:29:20;2.53;;;2.25;;
32788;SDS011;19141;48.980;8.410;2023-02-28T07:31:45;3.17;;;2.20;;
32788;SDS011;19141;48.980;8.410;2023-02-28T07:34:11;2.13;;;1.85;;
32788;SDS011;19141;48.980;8.410;2023-02-28T07:36:37;3.03;;;1.85;;
32788;SDS011;19141;48.980;8.410;2023-02-28T07:39:03;2.40;;;1.70;;
32788;SDS011;19141;48.980;8.410;2023-02-28T07:41:29;2.38;;;2.13;;
32788;SDS011;19141;48.980;8.410;2023-02-28T07:43:58;2.70;;;2.22;;
32788;SDS011;19141;48.980;8.410;2023-02-28T07:46:25;2.17;;;1.95;;
32788;SDS011;19141;48.980;8.410;2023-02-28T07:48:51;3.25;;;2.15;;
32788;SDS011;19141;48.980;8.410;2023-02-28T07:51:17;3.50;;;2.20;;
32788;SDS011;19141;48.980;8.410;2023-02-28T07:53:43;4.05;;;1.98;;
32788;SDS011;19141;48.980;8.410;2023-02-28T07:56:09;4.70;;;1.88;;
32788;SDS011;19141;48.980;8.410;2023-02-28T07:58:35;3.55;;;1.67;;
32788;SDS011;19141;48.980;8.410;2023-02-28T08:01:05;2.83;;;1.83;;
32788;SDS011;19141;48.980;8.410;2023-02-28T08:03:32;1.88;;;1.77;;
32788;SDS011;19141;48.980;8.410;2023-02-28T08:05:57;2.47;;;1.85;;
32788;SDS011;19141;48.980;8.410;2023-02-28T08:08:23;3.03;;;1.98;;
32788;SDS011;19141;48.980;8.410;2023-02-28T08:10:48;2.55;;;1.50;;
32788;SDS011;19141;48.980;8.410;2023-02-28T08:13:14;2.95;;;2.25;;
32788;SDS011;19141;48.980;8.410;2023-02-28T08:15:41;4.03;;;2.28;;
32788;SDS011;19141;48.980;8.410;2023-02-28T08:18:07;2.92;;;2.15;;
32788;SDS011;19141;48.980;8.410;2023-02-28T08:20:33;2.72;;;2.08;;
32788;SDS011;19141;48.980;8.410;2023-02-28T08:22:58;3.15;;;1.92;;
32788;SDS011;19141;48.980;8.410;2023-02-28T08:25:24;2.95;;;1.95;;
32788;SDS011;19141;48.980;8.410;2023-02-28T08:27:52;3.03;;;1.90;;
32788;SDS011;19141;48.980;8.410;2023-02-28T08:30:18;2.63;;;2.22;;
32788;SDS011;19141;48.980;8.410;2023-02-28T08:32:43;4.22;;;2.13;;
32788;SDS011;19141;48.980;8.410;2023-02-28T08:35:09;2.42;;;2.05;;
32788;SDS011;19141;48.980;8.410;2023-02-28T08:37:35;4.13;;;2.58;;
32788;SDS011;19141;48.980;8.410;2023-02-28T08:40:01;3.28;;;1.77;;
32788;SDS011;19141;48.980;8.410;2023-02-28T08:42:26;2.53;;;2.15;;
32788;SDS011;19141;48.980;8.410;2023-02-28T08:44:52;3.15;;;2.38;;
32788;SDS011;19141;48.980;8.410;2023-02-28T08:47:17;2.08;;;1.75;;
32788;SDS011;19141;48.980;8.410;2023-02-28T08:49:43;3.70;;;2.22;;
32788;SDS011;19141;48.980;8.410;2023-02-28T08:52:08;4.75;;;2.63;;
32788;SDS011;19141;48.980;8.410;2023-02-28T08:54:34;2.50;;;1.65;;
32788;SDS011;19141;48.980;8.410;2023-02-28T08:57:00;4.03;;;2.80;;
32788;SDS011;19141;48.980;8.410;2023-02-28T08:59:26;3.25;;;2.00;;
32788;SDS011;19141;48.980;8.410;2023-02-28T09:01:51;3.35;;;2.75;;
32788;SDS011;19141;48.980;8.410;2023-02-28T09:04:17;4.40;;;3.15;;
32788;SDS011;19141;48.980;8.410;2023-02-28T09:06:42;3.95;;;2.03;;
32788;SDS011;19141;48.980;8.410;2023-02-28T09:09:09;3.15;;;2.13;;
32788;SDS011;19141;48.980;8.410;2023-02-28T09:11:35;4.85;;;2.70;;
32788;SDS011;19141;48.980;8.410;2023-02-28T09:14:01;3.25;;;2.58;;
32788;SDS011;19141;48.980;8.410;2023-02-28T09:16:28;2.87;;;1.87;;
32788;SDS011;19141;48.980;8.410;2023-02-28T09:18:54;1.95;;;1.52;;
32788;SDS011;19141;48.980;8.410;2023-02-28T09:21:20;4.25;;;2.53;;
32788;SDS011;19141;48.980;8.410;2023-02-28T09:23:46;4.32;;;2.50;;
32788;SDS011;19141;48.980;8.410;2023-02-28T09:26:23;3.45;;;2.35;;
32788;SDS011;19141;48.980;8.410;2023-02-28T09:28:50;3.13;;;2.23;;
32788;SDS011;19141;48.980;8.410;2023-02-28T09:31:17;2.53;;;2.33;;
32788;SDS011;19141;48.980;8.410;2023-02-28T09:33:48;3.30;;;2.65;;
32788;SDS011;19141;48.980;8.410;2023-02-28T09:36:18;4.03;;;2.33;;
32788;SDS011;19141;48.980;8.410;2023-02-28T09:38:44;3.15;;;2.60;;
32788;SDS011;19141;48.980;8.410;2023-02-28T09:41:15;3.38;;;2.25;;
32788;SDS011;19141;48.980;8.410;2023-02-28T09:43:47;4.63;;;2.20;;
32788;SDS011;19141;48.980;8.410;2023-02-28T09:48:53;4.60;;;2.55;;
32788;SDS011;19141;48.980;8.410;2023-02-28T09:51:28;3.65;;;1.90;;
32788;SDS011;19141;48.980;8.410;2023-02-28T09:54:21;4.72;;;3.25;;
32788;SDS011;19141;48.980;8.410;2023-02-28T09:56:50;2.88;;;2.08;;
32788;SDS011;19141;48.980;8.410;2023-02-28T10:02:12;5.32;;;2.70;;
32788;SDS011;19141;48.980;8.410;2023-02-28T10:05:01;2.20;;;2.00;;
32788;SDS011;19141;48.980;8.410;2023-02-28T10:10:39;2.83;;;2.38;;
32788;SDS011;19141;48.980;8.410;2023-02-28T10:15:55;4.50;;;2.42;;
32788;SDS011;19141;48.980;8.410;2023-02-28T10:18:25;5.68;;;2.75;;
32788;SDS011;19141;48.980;8.410;2023-02-28T10:20:55;4.53;;;2.83;;
32788;SDS011;19141;48.980;8.410;2023-02-28T10:23:23;4.38;;;2.80;;
32788;SDS011;19141;48.980;8.410;2023-02-28T10:26:00;4.63;;;2.85;;
32788;SDS011;19141;48.980;8.410;2023-02-28T10:28:36;6.82;;;3.20;;
32788;SDS011;19141;48.980;8.410;2023-02-28T10:31:01;5.40;;;3.08;;
32788;SDS011;19141;48.980;8.410;2023-02-28T10:33:32;5.10;;;3.40;;
32788;SDS011;19141;48.980;8.410;2023-02-28T10:35:59;5.35;;;2.45;;
32788;SDS011;19141;48.980;8.410;2023-02-28T10:38:33;3.42;;;2.75;;
32788;SDS011;19141;48.980;8.410;2023-02-28T10:41:05;5.80;;;3.35;;
32788;SDS011;19141;48.980;8.410;2023-02-28T10:43:40;3.17;;;2.05;;
32788;SDS011;19141;48.980;8.410;2023-02-28T10:51:24;6.10;;;2.50;;
32788;SDS011;19141;48.980;8.410;2023-02-28T10:53:50;4.85;;;3.17;;
32788;SDS011;19141;48.980;8.410;2023-02-28T10:56:18;3.33;;;2.45;;
32788;SDS011;19141;48.980;8.410;2023-02-28T11:01:37;3.25;;;2.33;;
32788;SDS011;19141;48.980;8.410;2023-02-28T11:04:17;8.43;;;3.55;;
32788;SDS011;19141;48.980;8.410;2023-02-28T11:06:44;4.23;;;2.30;;
32788;SDS011;19141;48.980;8.410;2023-02-28T11:09:23;4.28;;;3.35;;
32788;SDS011;19141;48.980;8.410;2023-02-28T11:11:55;2.70;;;2.28;;
32788;SDS011;19141;48.980;8.410;2023-02-28T11:14:22;7.28;;;3.10;;
32788;SDS011;19141;48.980;8.410;2023-02-28T11:16:50;3.05;;;2.58;;
32788;SDS011;19141;48.980;8.410;2023-02-28T11:19:27;4.97;;;3.50;;
32788;SDS011;19141;48.980;8.410;2023-02-28T11:21:55;4.38;;;2.80;;
32788;SDS011;19141;48.980;8.410;2023-02-28T11:24:26;5.20;;;2.67;;
32788;SDS011;19141;48.980;8.410;2023-02-28T11:26:54;4.22;;;2.60;;
32788;SDS011;19141;48.980;8.410;2023-02-28T11:29:21;5.03;;;2.88;;
32788;SDS011;19141;48.980;8.410;2023-02-28T11:34:44;4.55;;;2.78;;
32788;SDS011;19141;48.980;8.410;2023-02-28T11:37:13;5.25;;;2.90;;
32788;SDS011;19141;48.980;8.410;2023-02-28T11:39:41;3.78;;;2.80;;
32788;SDS011;19141;48.980;8.410;2023-02-28T11:47:55;5.47;;;3.15;;
32788;SDS011;19141;48.980;8.410;2023-02-28T11:50:35;4.47;;;2.85;;
32788;SDS011;19141;48.980;8.410;2023-02-28T11:53:10;4.18;;;2.83;;
32788;SDS011;19141;48.980;8.410;2023-02-28T11:56:05;6.10;;;3.42;;
32788;SDS011;19141;48.980;8.410;2023-02-28T12:01:18;3.97;;;2.85;;
32788;SDS011;19141;48.980;8.410;2023-02-28T12:03:57;4.07;;;2.77;;
32788;SDS011;19141;48.980;8.410;2023-02-28T12:09:42;4.85;;;3.42;;
32788;SDS011;19141;48.980;8.410;2023-02-28T12:12:36;4.28;;;3.13;;
32788;SDS011;19141;48.980;8.410;2023-02-28T12:15:17;5.10;;;3.50;;
32788;SDS011;19141;48.980;8.410;2023-02-28T12:18:18;4.45;;;3.45;;
32788;SDS011;19141;48.980;8.410;2023-02-28T12:21:20;5.25;;;2.67;;
32788;SDS011;19141;48.980;8.410;2023-02-28T12:26:53;4.38;;;3.10;;
32788;SDS011;19141;48.980;8.410;2023-02-28T12:29:24;4.32;;;2.90;;
32788;SDS011;19141;48.980;8.410;2023-02-28T12:31:59;3.72;;;3.00;;
32788;SDS011;19141;48.980;8.410;2023-02-28T12:34:35;4.20;;;3.15;;
32788;SDS011;19141;48.980;8.410;2023-02-28T12:37:07;4.60;;;3.03;;
32788;SDS011;19141;48.980;8.410;2023-02-28T12:39:46;4.85;;;3.33;;
32788;SDS011;19141;48.980;8.410;2023-02-28T12:42:19;3.33;;;2.70;;
32788;SDS011;19141;48.980;8.410;2023-02-28T12:44:54;6.32;;;3.80;;
32788;SDS011;19141;48.980;8.410;2023-02-28T12:47:23;3.65;;;2.67;;
32788;SDS011;19141;48.980;8.410;2023-02-28T12:49:50;4.30;;;3.08;;
32788;SDS011;19141;48.980;8.410;2023-02-28T12:52:22;4.03;;;3.15;;
32788;SDS011;19141;48.980;8.410;2023-02-28T12:55:13;4.43;;;3.30;;
32788;SDS011;19141;48.980;8.410;2023-02-28T13:00:16;4.25;;;3.47;;
32788;SDS011;19141;48.980;8.410;2023-02-28T13:03:06;6.10;;;3.42;;
32788;SDS011;19141;48.980;8.410;2023-02-28T13:11:40;6.50;;;3.55;;
32788;SDS011;19141;48.980;8.410;2023-02-28T13:19:32;5.05;;;3.33;;
32788;SDS011;19141;48.980;8.410;2023-02-28T13:22:00;4.40;;;2.97;;
32788;SDS011;19141;48.980;8.410;2023-02-28T13:29:31;6.22;;;4.30;;
32788;SDS011;19141;48.980;8.410;2023-02-28T13:32:44;4.43;;;3.53;;
32788;SDS011;19141;48.980;8.410;2023-02-28T13:39:51;5.20;;;3.15;;
32788;SDS011;19141;48.980;8.410;2023-02-28T13:45:19;4.30;;;3.28;;
32788;SDS011;19141;48.980;8.410;2023-02-28T13:47:41;4.45;;;3.40;;
32788;SDS011;19141;48.980;8.410;2023-02-28T13:50:51;5.10;;;3.80;;
32788;SDS011;19141;48.980;8.410;2023-02-28T14:06:36;5.22;;;3.45;;
32788;SDS011;19141;48.980;8.410;2023-02-28T14:11:56;6.70;;;3.78;;
32788;SDS011;19141;48.980;8.410;2023-02-28T14:17:01;3.88;;;3.40;;
32788;SDS011;19141;48.980;8.410;2023-02-28T14:19:30;5.50;;;3.38;;
32788;SDS011;19141;48.980;8.410;2023-02-28T14:22:04;4.07;;;3.10;;
32788;SDS011;19141;48.980;8.410;2023-02-28T14:38:21;7.20;;;3.65;;
32788;SDS011;19141;48.980;8.410;2023-02-28T14:40:51;4.30;;;3.13;;
32788;SDS011;19141;48.980;8.410;2023-02-28T14:43:21;6.20;;;3.83;;
32788;SDS011;19141;48.980;8.410;2023-02-28T14:45:52;4.97;;;3.42;;
32788;SDS011;19141;48.980;8.410;2023-02-28T14:48:20;5.57;;;3.78;;
32788;SDS011;19141;48.980;8.410;2023-02-28T14:50:57;5.10;;;3.60;;
32788;SDS011;19141;48.980;8.410;2023-02-28T14:53:26;4.43;;;3.47;;
32788;SDS011;19141;48.980;8.410;2023-02-28T14:55:54;5.40;;;3.28;;
32788;SDS011;19141;48.980;8.410;2023-02-28T14:58:24;5.65;;;3.65;;
32788;SDS011;19141;48.980;8.410;2023-02-28T15:00:56;4.78;;;4.05;;
32788;SDS011;19141;48.980;8.410;2023-02-28T15:05:58;6.07;;;3.88;;
32788;SDS011;19141;48.980;8.410;2023-02-28T15:08:25;5.10;;;3.63;;
32788;SDS011;19141;48.980;8.410;2023-02-28T15:13:47;4.97;;;3.45;;
32788;SDS011;19141;48.980;8.410;2023-02-28T15:21:43;4.80;;;3.70;;
32788;SDS011;19141;48.980;8.410;2023-02-28T15:24:16;5.30;;;3.33;;
32788;SDS011;19141;48.980;8.410;2023-02-28T15:26:50;6.72;;;3.75;;
32788;SDS011;19141;48.980;8.410;2023-02-28T15:29:24;6.25;;;3.70;;
32788;SDS011;19141;48.980;8.410;2023-02-28T15:31:57;6.40;;;3.55;;
32788;SDS011;19141;48.980;8.410;2023-02-28T15:34:36;5.10;;;3.13;;
32788;SDS011;19141;48.980;8.410;2023-02-28T15:42:35;5.38;;;3.47;;
32788;SDS011;19141;48.980;8.410;2023-02-28T15:45:00;4.00;;;3.03;;
32788;SDS011;19141;48.980;8.410;2023-02-28T15:47:27;3.60;;;3.05;;
32788;SDS011;19141;48.980;8.410;2023-02-28T15:49:56;7.53;;;3.03;;
32788;SDS011;19141;48.980;8.410;2023-02-28T15:55:15;5.43;;;3.53;;
32788;SDS011;19141;48.980;8.410;2023-02-28T15:57:44;4.45;;;3.08;;
32788;SDS011;19141;48.980;8.410;2023-02-28T16:00:12;4.43;;;3.25;;
32788;SDS011;19141;48.980;8.410;2023-02-28T16:02:44;7.47;;;4.25;;
32788;SDS011;19141;48.980;8.410;2023-02-28T16:07:38;5.22;;;3.40;;
32788;SDS011;19141;48.980;8.410;2023-02-28T16:10:06;5.20;;;3.45;;
32788;SDS011;19141;48.980;8.410;2023-02-28T16:12:34;5.78;;;3.60;;
32788;SDS011;19141;48.980;8.410;2023-02-28T16:15:09;5.95;;;3.63;;
32788;SDS011;19141;48.980;8.410;2023-02-28T16:17:44;5.22;;;3.60;;
32788;SDS011;19141;48.980;8.410;2023-02-28T16:22:38;4.93;;;3.75;;
32788;SDS011;19141;48.980;8.410;2023-02-28T16:25:04;5.70;;;3.38;;
32788;SDS011;19141;48.980;8.410;2023-02-28T16:27:34;5.07;;;3.60;;
32788;SDS011;19141;48.980;8.410;2023-02-28T16:30:03;6.75;;;3.70;;
32788;SDS011;19141;48.980;8.410;2023-02-28T16:34:56;5.35;;;3.53;;
32788;SDS011;19141;48.980;8.410;2023-02-28T16:37:22;5.75;;;3.63;;
32788;SDS011;19141;48.980;8.410;2023-02-28T16:39:47;5.55;;;3.58;;
32788;SDS011;19141;48.980;8.410;2023-02-28T16:42:17;5.75;;;3.58;;
32788;SDS011;19141;48.980;8.410;2023-02-28T16:44:50;7.78;;;3.95;;
32788;SDS011;19141;48.980;8.410;2023-02-28T16:47:16;4.70;;;3.47;;
32788;SDS011;19141;48.980;8.410;2023-02-28T16:49:42;4.28;;;3.30;;
32788;SDS011;19141;48.980;8.410;2023-02-28T16:52:08;4.95;;;3.17;;
32788;SDS011;19141;48.980;8.410;2023-02-28T16:54:34;6.55;;;3.95;;
32788;SDS011;19141;48.980;8.410;2023-02-28T16:57:00;5.68;;;3.47;;
32788;SDS011;19141;48.980;8.410;2023-02-28T16:59:27;4.07;;;3.33;;
32788;SDS011;19141;48.980;8.410;2023-02-28T17:01:54;6.93;;;3.67;;
32788;SDS011;19141;48.980;8.410;2023-02-28T17:04:21;4.47;;;3.28;;
32788;SDS011;19141;48.980;8.410;2023-02-28T17:06:47;5.97;;;3.42;;
32788;SDS011;19141;48.980;8.410;2023-02-28T17:09:17;5.40;;;3.78;;
32788;SDS011;19141;48.980;8.410;2023-02-28T17:11:44;3.60;;;2.92;;
32788;SDS011;19141;48.980;8.410;2023-02-28T17:14:10;5.28;;;3.33;;
32788;SDS011;19141;48.980;8.410;2023-02-28T17:16:36;4.88;;;3.88;;
32788;SDS011;19141;48.980;8.410;2023-02-28T17:19:09;5.20;;;3.35;;
32788;SDS011;19141;48.980;8.410;2023-02-28T17:21:37;5.03;;;3.50;;
32788;SDS011;19141;48.980;8.410;2023-02-28T17:24:03;4.70;;;3.28;;
32788;SDS011;19141;48.980;8.410;2023-02-28T17:26:29;5.65;;;2.90;;
32788;SDS011;19141;48.980;8.410;2023-02-28T17:28:55;5.00;;;3.08;;
32788;SDS011;19141;48.980;8.410;2023-02-28T17:31:25;4.70;;;2.95;;
32788;SDS011;19141;48.980;8.410;2023-02-28T17:33:52;3.92;;;2.90;;
32788;SDS011;19141;48.980;8.410;2023-02-28T17:36:23;4.03;;;3.33;;
32788;SDS011;19141;48.980;8.410;2023-02-28T17:38:51;4.10;;;3.30;;
32788;SDS011;19141;48.980;8.410;2023-02-28T17:41:18;5.60;;;3.75;;
32788;SDS011;19141;48.980;8.410;2023-02-28T17:43:44;5.10;;;4.05;;
32788;SDS011;19141;48.980;8.410;2023-02-28T17:46:16;5.38;;;3.55;;
32788;SDS011;19141;48.980;8.410;2023-02-28T17:48:50;5.35;;;3.00;;
32788;SDS011;19141;48.980;8.410;2023-02-28T17:51:17;5.55;;;3.58;;
32788;SDS011;19141;48.980;8.410;2023-02-28T17:53:44;5.78;;;3.33;;
32788;SDS011;19141;48.980;8.410;2023-02-28T17:56:13;5.78;;;3.67;;
32788;SDS011;19141;48.980;8.410;2023-02-28T17:58:41;6.55;;;3.70;;
32788;SDS011;19141;48.980;8.410;2023-02-28T18:01:07;5.32;;;3.50;;
32788;SDS011;19141;48.980;8.410;2023-02-28T18:03:33;4.22;;;2.58;;
32788;SDS011;19141;48.980;8.410;2023-02-28T18:05:58;6.15;;;3.50;;
32788;SDS011;19141;48.980;8.410;2023-02-28T18:08:24;7.43;;;4.43;;
32788;SDS011;19141;48.980;8.410;2023-02-28T18:10:51;4.95;;;3.25;;
32788;SDS011;19141;48.980;8.410;2023-02-28T18:13:16;4.82;;;3.13;;
32788;SDS011;19141;48.980;8.410;2023-02-28T18:15:42;5.15;;;3.10;;
32788;SDS011;19141;48.980;8.410;2023-02-28T18:18:07;5.35;;;3.53;;
32788;SDS011;19141;48.980;8.410;2023-02-28T18:20:33;4.18;;;3.40;;
32788;SDS011;19141;48.980;8.410;2023-02-28T18:22:59;6.03;;;3.08;;
32788;SDS011;19141;48.980;8.410;2023-02-28T18:25:25;5.25;;;3.83;;
32788;SDS011;19141;48.980;8.410;2023-02-28T18:27:51;6.97;;;3.55;;
32788;SDS011;19141;48.980;8.410;2023-02-28T18:30:27;5.20;;;3.03;;
32788;SDS011;19141;48.980;8.410;2023-02-28T18:32:58;5.05;;;3.22;;
32788;SDS011;19141;48.980;8.410;2023-02-28T18:35:26;4.80;;;3.40;;
32788;SDS011;19141;48.980;8.410;2023-02-28T18:40:26;4.93;;;3.22;;
32788;SDS011;19141;48.980;8.410;2023-02-28T18:42:52;4.20;;;3.20;;
32788;SDS011;19141;48.980;8.410;2023-02-28T18:45:17;3.47;;;2.30;;
32788;SDS011;19141;48.980;8.410;2023-02-28T18:47:42;5.95;;;2.95;;
32788;SDS011;19141;48.980;8.410;2023-02-28T18:50:08;5.25;;;3.28;;
32788;SDS011;19141;48.980;8.410;2023-02-28T18:52:34;6.13;;;3.40;;
32788;SDS011;19141;48.980;8.410;2023-02-28T18:54:59;8.00;;;2.92;;
32788;SDS011;19141;48.980;8.410;2023-02-28T18:57:25;5.13;;;3.33;;
32788;SDS011;19141;48.980;8.410;2023-02-28T18:59:50;6.15;;;3.85;;
32788;SDS011;19141;48.980;8.410;2023-02-28T19:02:16;5.93;;;3.60;;
32788;SDS011;19141;48.980;8.410;2023-02-28T19:04:41;5.45;;;3.63;;
32788;SDS011;19141;48.980;8.410;2023-02-28T19:07:07;4.85;;;3.60;;
32788;SDS011;19141;48.980;8.410;2023-02-28T19:09:32;5.50;;;3.63;;
32788;SDS011;19141;48.980;8.410;2023-02-28T19:11:57;6.50;;;3.58;;
32788;SDS011;19141;48.980;8.410;2023-02-28T19:14:23;4.85;;;3.85;;
32788;SDS011;19141;48.980;8.410;2023-02-28T19:16:48;5.00;;;3.47;;
32788;SDS011;19141;48.980;8.410;2023-02-28T19:19:14;4.93;;;3.35;;
32788;SDS011;19141;48.980;8.410;2023-02-28T19:21:40;6.60;;;3.90;;
32788;SDS011;19141;48.980;8.410;2023-02-28T19:24:05;6.10;;;3.95;;
32788;SDS011;19141;48.980;8.410;2023-02-28T19:26:31;7.38;;;2.78;;
32788;SDS011;19141;48.980;8.410;2023-02-28T19:28:56;6.18;;;4.00;;
32788;SDS011;19141;48.980;8.410;2023-02-28T19:31:23;5.28;;;3.53;;
32788;SDS011;19141;48.980;8.410;2023-02-28T19:33:50;6.20;;;3.92;;
32788;SDS011;19141;48.980;8.410;2023-02-28T19:36:17;6.30;;;2.90;;
32788;SDS011;19141;48.980;8.410;2023-02-28T19:38:43;4.45;;;3.28;;
32788;SDS011;19141;48.980;8.410;2023-02-28T19:41:10;5.63;;;3.47;;
32788;SDS011;19141;48.980;8.410;2023-02-28T19:43:37;6.40;;;4.35;;
32788;SDS011;19141;48.980;8.410;2023-02-28T19:46:02;5.32;;;3.60;;
32788;SDS011;19141;48.980;8.410;2023-02-28T19:48:28;7.32;;;3.78;;
32788;SDS011;19141;48.980;8.410;2023-02-28T19:50:58;8.20;;;3.75;;
32788;SDS011;19141;48.980;8.410;2023-02-28T19:53:32;7.07;;;3.72;;
32788;SDS011;19141;48.980;8.410;2023-02-28T19:55:59;7.15;;;3.90;;
32788;SDS011;19141;48.980;8.410;2023-02-28T19:58:25;4.68;;;3.60;;
32788;SDS011;19141;48.980;8.410;2023-02-28T20:00:51;5.00;;;3.58;;
32788;SDS011;19141;48.980;8.410;2023-02-28T20:03:17;4.93;;;3.33;;
32788;SDS011;19141;48.980;8.410;2023-02-28T20:05:43;5.72;;;4.43;;
32788;SDS011;19141;48.980;8.410;2023-02-28T20:08:10;5.05;;;3.75;;
32788;SDS011;19141;48.980;8.410;2023-02-28T20:10:36;5.38;;;3.85;;
32788;SDS011;19141;48.980;8.410;2023-02-28T20:13:01;6.75;;;4.45;;
32788;SDS011;19141;48.980;8.410;2023-02-28T20:15:27;5.72;;;3.70;;
32788;SDS011;19141;48.980;8.410;2023-02-28T20:17:53;5.30;;;4.45;;
32788;SDS011;19141;48.980;8.410;2023-02-28T20:20:22;6.63;;;3.58;;
32788;SDS011;19141;48.980;8.410;2023-02-28T20:22:47;9.48;;;5.10;;
32788;SDS011;19141;48.980;8.410;2023-02-28T20:25:13;4.75;;;3.67;;
32788;SDS011;19141;48.980;8.410;2023-02-28T20:27:39;7.10;;;3.83;;
32788;SDS011;19141;48.980;8.410;2023-02-28T20:30:04;8.65;;;4.57;;
32788;SDS011;19141;48.980;8.410;2023-02-28T20:32:31;5.38;;;3.20;;
32788;SDS011;19141;48.980;8.410;2023-02-28T20:34:57;7.13;;;3.28;;
32788;SDS011;19141;48.980;8.410;2023-02-28T20:37:23;6.18;;;4.30;;
32788;SDS011;19141;48.980;8.410;2023-02-28T20:39:49;5.20;;;3.83;;
32788;SDS011;19141;48.980;8.410;2023-02-28T20:44:42;4.53;;;3.08;;
32788;SDS011;19141;48.980;8.410;2023-02-28T20:47:08;6.63;;;4.05;;
32788;SDS011;19141;48.980;8.410;2023-02-28T20:49:33;7.15;;;4.10;;
32788;SDS011;19141;48.980;8.410;2023-02-28T20:51:59;5.53;;;4.25;;
32788;SDS011;19141;48.980;8.410;2023-02-28T20:54:24;5.20;;;3.78;;
32788;SDS011;19141;48.980;8.410;2023-02-28T20:56:49;6.22;;;4.22;;
32788;SDS011;19141;48.980;8.410;2023-02-28T20:59:15;7.13;;;4.13;;
32788;SDS011;19141;48.980;8.410;2023-02-28T21:01:40;7.63;;;3.90;;
32788;SDS011;19141;48.980;8.410;2023-02-28T21:04:09;8.13;;;4.00;;
32788;SDS011;19141;48.980;8.410;2023-02-28T21:06:35;7.00;;;4.40;;
32788;SDS011;19141;48.980;8.410;2023-02-28T21:09:04;5.80;;;3.85;;
32788;SDS011;19141;48.980;8.410;2023-02-28T21:11:32;7.70;;;4.93;;
32788;SDS011;19141;48.980;8.410;2023-02-28T21:14:00;6.30;;;4.15;;
32788;SDS011;19141;48.980;8.410;2023-02-28T21:16:27;7.97;;;4.93;;
32788;SDS011;19141;48.980;8.410;2023-02-28T21:18:53;8.20;;;5.43;;
32788;SDS011;19141;48.980;8.410;2023-02-28T21:21:23;13.55;;;8.40;;
32788;SDS011;19141;48.980;8.410;2023-02-28T21:23:49;11.68;;;7.40;;
32788;SDS011;19141;48.980;8.410;2023-02-28T21:26:19;11.07;;;6.73;;
32788;SDS011;19141;48.980;8.410;2023-02-28T21:28:54;12.18;;;7.15;;
32788;SDS011;19141;48.980;8.410;2023-02-28T21:31:21;11.27;;;6.78;;
32788;SDS011;19141;48.980;8.410;2023-02-28T21:33:48;9.68;;;5.72;;
32788;SDS011;19141;48.980;8.410;2023-02-28T21:36:15;7.05;;;5.22;;
32788;SDS011;19141;48.980;8.410;2023-02-28T21:38:44;7.80;;;4.47;;
32788;SDS011;19141;48.980;8.410;2023-02-28T21:43:39;6.68;;;3.95;;
32788;SDS011;19141;48.980;8.410;2023-02-28T21:46:06;6.72;;;4.45;;
32788;SDS011;19141;48.980;8.410;2023-02-28T21:48:33;3.30;;;2.60;;
32788;SDS011;19141;48.980;8.410;2023-02-28T21:51:00;6.72;;;4.00;;
32788;SDS011;19141;48.980;8.410;2023-02-28T21:53:28;5.93;;;3.42;;
32788;SDS011;19141;48.980;8.410;2023-02-28T21:55:54;6.22;;;4.53;;
32788;SDS011;19141;48.980;8.410;2023-02-28T21:58:24;7.47;;;3.72;;
32788;SDS011;19141;48.980;8.410;2023-02-28T22:00:49;6.93;;;3.95;;
32788;SDS011;19141;48.980;8.410;2023-02-28T22:03:15;5.03;;;3.85;;
32788;SDS011;19141;48.980;8.410;2023-02-28T22:05:40;4.38;;;3.10;;
32788;SDS011;19141;48.980;8.410;2023-02-28T22:08:06;4.50;;;3.25;;
32788;SDS011;19141;48.980;8.410;2023-02-28T22:10:32;7.25;;;3.80;;
32788;SDS011;19141;48.980;8.410;2023-02-28T22:12:59;6.90;;;3.67;;
32788;SDS011;19141;48.980;8.410;2023-02-28T22:15:26;5.65;;;3.63;;
32788;SDS011;19141;48.980;8.410;2023-02-28T22:17:51;4.45;;;3.67;;
32788;SDS011;19141;48.980;8.410;2023-02-28T22:20:17;5.43;;;4.20;;
32788;SDS011;19141;48.980;8.410;2023-02-28T22:22:42;8.65;;;4.47;;
32788;SDS011;19141;48.980;8.410;2023-02-28T22:25:08;7.40;;;3.65;;
32788;SDS011;19141;48.980;8.410;2023-02-28T22:27:34;4.95;;;3.70;;
32788;SDS011;19141;48.980;8.410;2023-02-28T22:29:59;7.40;;;3.80;;